Time;durP1;ratioP1;P1;durP2;ratioP2;P2;SDS_P1;SDS_P2;PMS_P1;PMS_P2;Temp;Humidity;BMP_temperature;BMP_pressure;BME280_temperature;BME280_humidity;BME280_pressure;Samples;Min_cycle;Max_cycle;Signal;HPM_P1;HPM_P2
2023/06/12 00:00:07;;;;;;;8.98;7.88;;;;;;;17.32;85.46;97076.16;10246733;28;20161;-50
2023/06/12 00:05:08;;;;;;;10.82;6.93;;;;;;;17.06;86.18;97080.63;10247650;28;20077;-51
2023/06/12 00:10:07;;;;;;;19.45;8.20;;;;;;;16.93;86.44;97074.13;10246913;28;20068;-50
2023/06/12 00:15:06;;;;;;;10.93;7.25;;;;;;;16.86;85.93;97068.28;10247401;28;20066;-51
2023/06/12 00:20:07;;;;;;;13.90;7.13;;;;;;;16.85;85.52;97070.94;10246180;28;20538;-50
2023/06/12 00:25:08;;;;;;;14.57;9.23;;;;;;;16.81;86.49;97072.81;10246714;28;20064;-51
2023/06/12 00:30:08;;;;;;;13.55;9.45;;;;;;;16.65;88.53;97071.63;10245821;28;20126;-50
2023/06/12 00:35:07;;;;;;;11.38;7.20;;;;;;;16.52;88.58;97074.69;10246687;28;20058;-51
2023/06/12 00:40:07;;;;;;;11.60;7.43;;;;;;;16.55;88.05;97067.63;10265696;28;20494;-49
2023/06/12 00:45:07;;;;;;;10.48;7.63;;;;;;;16.60;87.81;97074.41;10245002;28;20077;-50
2023/06/12 00:50:11;;;;;;;11.90;7.70;;;;;;;16.23;88.52;97032.97;10244433;28;20074;-52
2023/06/12 00:55:11;;;;;;;13.55;8.25;;;;;;;16.50;89.79;97080.91;10245059;28;20072;-49
2023/06/12 01:00:12;;;;;;;13.00;9.35;;;;;;;16.38;90.22;97082.19;10244780;28;20162;-52
2023/06/12 01:05:13;;;;;;;10.57;8.50;;;;;;;16.23;91.11;97074.84;10245802;28;20124;-52
2023/06/12 01:10:58;;;;;;;13.38;8.55;;;;;;;16.25;90.68;97084.34;10244521;28;20054;-51
2023/06/12 01:15:57;;;;;;;12.18;9.07;;;;;;;16.34;89.93;97088.44;10236104;28;20081;-49
2023/06/12 01:20:58;;;;;;;13.27;8.43;;;;;;;16.09;91.70;97111.97;10243669;28;20052;-51
2023/06/12 01:26:36;;;;;;;11.35;8.10;;;;;;;15.89;93.34;97112.63;10244678;28;20125;-50
2023/06/12 01:32:01;;;;;;;11.90;9.20;;;;;;;16.01;93.15;97121.84;10243587;28;20497;-51
2023/06/12 01:37:17;;;;;;;15.98;10.20;;;;;;;15.96;92.97;97132.47;10242335;28;20066;-50
2023/06/12 01:42:16;;;;;;;13.40;10.10;;;;;;;16.02;92.27;97136.63;10243295;28;20138;-51
2023/06/12 01:47:15;;;;;;;16.40;10.60;;;;;;;16.02;92.50;97137.50;10241615;28;20082;-50
2023/06/12 01:52:14;;;;;;;11.80;9.35;;;;;;;16.03;92.23;97140.97;10242282;28;20113;-51
2023/06/12 01:57:15;;;;;;;12.13;9.18;;;;;;;16.03;92.61;97148.81;10244952;28;20474;-48
2023/06/12 02:02:15;;;;;;;13.27;9.05;;;;;;;16.03;92.78;97154.91;10251228;28;20133;-50
2023/06/12 02:07:14;;;;;;;12.38;8.77;;;;;;;16.11;92.47;97149.41;10251146;28;20458;-51
2023/06/12 02:12:13;;;;;;;13.52;9.35;;;;;;;16.15;92.03;97150.19;10249819;28;20073;-51
2023/06/12 02:17:13;;;;;;;13.75;9.50;;;;;;;16.25;91.87;97146.34;10251650;28;20076;-49
2023/06/12 02:22:12;;;;;;;11.82;9.00;;;;;;;16.32;91.74;97150.47;10250533;28;20581;-49
2023/06/12 02:27:12;;;;;;;11.68;8.68;;;;;;;16.36;91.90;97149.47;10249193;28;20026;-51
2023/06/12 02:32:12;;;;;;;13.02;7.78;;;;;;;16.19;90.87;97134.31;10250720;28;20069;-51
2023/06/12 02:37:11;;;;;;;17.55;9.48;;;;;;;16.19;91.70;97149.19;10250201;28;20501;-50
2023/06/12 02:42:10;;;;;;;13.98;9.15;;;;;;;16.15;91.84;97161.50;10249831;28;20769;-51
2023/06/12 02:47:09;;;;;;;14.93;9.90;;;;;;;16.07;92.47;97153.91;10247536;28;20086;-52
2023/06/12 02:52:08;;;;;;;12.95;9.85;;;;;;;15.98;92.56;97154.22;10248772;28;20027;-49
2023/06/12 02:57:07;;;;;;;14.00;10.30;;;;;;;15.97;92.38;97160.34;10249869;28;20074;-51
2023/06/12 03:02:06;;;;;;;18.40;11.27;;;;;;;15.94;92.79;97160.44;10248981;28;20541;-50
2023/06/12 03:07:06;;;;;;;15.55;10.18;;;;;;;15.99;92.38;97161.13;10248459;28;20124;-48
2023/06/12 03:12:05;;;;;;;18.85;11.55;;;;;;;16.11;92.56;97159.88;10248627;28;20066;-51
2023/06/12 03:17:05;;;;;;;14.60;9.80;;;;;;;16.20;92.54;97166.59;10248229;28;20141;-52
2023/06/12 03:22:04;;;;;;;17.13;10.85;;;;;;;16.28;92.04;97169.81;10246916;28;20509;-51
2023/06/12 03:27:04;;;;;;;16.05;9.80;;;;;;;16.25;92.30;97169.91;10247788;28;20042;-49
2023/06/12 03:32:03;;;;;;;17.17;10.75;;;;;;;16.25;92.25;97169.91;10248138;28;20114;-51
2023/06/12 03:37:02;;;;;;;14.50;10.23;;;;;;;16.25;92.07;97155.03;10246671;28;20084;-50
2023/06/12 03:42:01;;;;;;;12.10;10.48;;;;;;;16.33;91.83;97175.75;10246480;28;20425;-51
2023/06/12 03:47:00;;;;;;;13.88;10.23;;;;;;;16.45;91.59;97161.41;10246499;28;20066;-50
2023/06/12 03:51:59;;;;;;;13.88;10.07;;;;;;;16.63;91.39;97160.78;10247373;28;20125;-50
2023/06/12 03:56:58;;;;;;;16.33;10.68;;;;;;;16.79;90.59;97161.06;10259727;28;20045;-50
2023/06/12 04:01:58;;;;;;;11.82;9.43;;;;;;;16.95;90.19;97166.66;10246344;28;20493;-51
2023/06/12 04:06:57;;;;;;;20.77;10.32;;;;;;;17.17;89.06;97168.50;10246983;28;20081;-49
2023/06/12 04:11:56;;;;;;;16.38;10.15;;;;;;;17.33;88.34;97167.00;10245667;28;20126;-51
2023/06/12 04:16:55;;;;;;;15.20;9.35;;;;;;;17.47;87.45;97162.13;10246428;28;20065;-51
2023/06/12 04:21:54;;;;;;;14.32;10.50;;;;;;;17.58;86.59;97158.22;10245184;28;20137;-52
2023/06/12 04:26:54;;;;;;;15.48;9.63;;;;;;;17.68;86.67;97154.31;10245340;28;20034;-51
2023/06/12 04:31:54;;;;;;;15.90;9.70;;;;;;;17.72;85.92;97162.00;10244295;28;20109;-51
2023/06/12 04:36:53;;;;;;;15.27;9.77;;;;;;;17.60;86.10;97159.88;10245249;28;20533;-51
2023/06/12 04:41:53;;;;;;;16.73;10.75;;;;;;;17.58;86.34;97166.94;10245429;28;20053;-49
2023/06/12 04:46:52;;;;;;;17.27;13.48;;;;;;;17.56;86.30;97166.13;10244266;28;20129;-50
2023/06/12 04:51:51;;;;;;;26.33;18.48;;;;;;;17.37;87.51;97160.75;10242114;28;20514;-51
2023/06/12 04:56:51;;;;;;;28.08;19.80;;;;;;;17.43;87.67;97171.00;10244268;28;20420;-48
2023/06/12 05:01:51;;;;;;;19.40;17.25;;;;;;;17.59;87.24;97173.91;10243992;28;20133;-49
2023/06/12 05:06:51;;;;;;;21.85;16.05;;;;;;;17.64;86.92;97176.34;10241791;28;20066;-50
2023/06/12 05:11:50;;;;;;;23.08;15.25;;;;;;;17.92;86.42;97178.78;10238950;28;20462;-49
2023/06/12 05:16:49;;;;;;;16.73;13.65;;;;;;;18.26;84.92;97175.63;10241341;28;20120;-48
2023/06/12 05:21:49;;;;;;;19.98;13.02;;;;;;;18.66;82.88;97186.25;10239014;28;20033;-51
2023/06/12 05:26:48;;;;;;;15.95;11.40;;;;;;;18.91;82.39;97163.28;10243824;28;20085;-51
2023/06/12 05:31:47;;;;;;;17.73;12.40;;;;;;;19.28;80.52;97176.59;10243804;28;20046;-51
2023/06/12 05:36:46;;;;;;;20.33;13.38;;;;;;;19.43;79.86;97181.97;10243025;28;20042;-51
2023/06/12 05:41:45;;;;;;;18.02;14.43;;;;;;;19.73;77.37;97180.66;10241896;28;20432;-49
2023/06/12 05:46:44;;;;;;;29.88;15.98;;;;;;;20.01;75.93;97185.47;10241780;28;20141;-50
2023/06/12 05:51:42;;;;;;;29.17;17.27;;;;;;;19.74;76.27;97193.75;10243516;28;20038;-49
2023/06/12 05:56:41;;;;;;;28.65;17.15;;;;;;;19.80;77.22;97190.84;10242079;28;20133;-51
2023/06/12 06:01:40;;;;;;;23.77;16.90;;;;;;;19.96;77.42;97179.59;10242427;28;20035;-52
2023/06/12 06:06:40;;;;;;;25.52;15.73;;;;;;;20.21;76.64;97195.91;10243912;28;20125;-49
2023/06/12 06:11:39;;;;;;;18.35;13.52;;;;;;;20.54;74.97;97192.56;10244673;28;20551;-50
2023/06/12 06:16:38;;;;;;;15.98;11.00;;;;;;;20.67;73.33;97191.00;10240925;28;20521;-51
2023/06/12 06:21:38;;;;;;;13.43;8.85;;;;;;;20.67;71.87;97198.91;10240795;28;20046;-51
2023/06/12 06:26:37;;;;;;;20.55;12.32;;;;;;;20.63;72.85;97197.38;10239850;28;20149;-52
2023/06/12 06:31:36;;;;;;;17.55;12.70;;;;;;;20.47;74.28;97191.19;10241771;28;20057;-51
2023/06/12 06:36:35;;;;;;;16.60;11.10;;;;;;;20.42;74.94;97190.53;10241917;28;20352;-49
2023/06/12 06:41:34;;;;;;;15.65;9.98;;;;;;;20.49;74.80;97187.53;10240955;28;20081;-51
2023/06/12 06:46:33;;;;;;;14.75;9.05;;;;;;;20.95;73.98;97184.31;10243734;28;20042;-53
2023/06/12 06:51:32;;;;;;;10.35;8.18;;;;;;;21.25;70.99;97178.41;10247307;28;20058;-51
2023/06/12 06:56:31;;;;;;;11.35;6.55;;;;;;;21.53;69.28;97180.41;10248608;28;20022;-49
2023/06/12 07:01:32;;;;;;;9.00;6.72;;;;;;;22.00;62.93;97174.31;10249259;28;20482;-50
2023/06/12 07:06:31;;;;;;;19.05;6.50;;;;;;;22.31;62.73;97160.19;10247922;28;20069;-52
2023/06/12 07:11:30;;;;;;;9.15;5.60;;;;;;;22.44;60.87;97159.50;10250076;28;20037;-48
2023/06/12 07:16:31;;;;;;;9.02;5.38;;;;;;;22.68;57.79;97155.41;10236985;28;20136;-50
2023/06/12 07:21:30;;;;;;;9.30;6.63;;;;;;;22.56;59.98;97154.31;10226747;28;20513;-50
2023/06/12 07:26:29;;;;;;;8.85;5.57;;;;;;;22.27;59.74;97152.53;10241205;28;20739;-49
2023/06/12 07:31:28;;;;;;;11.65;5.90;;;;;;;22.28;59.93;97141.88;10239356;28;20138;-48
2023/06/12 07:36:28;;;;;;;7.90;5.93;;;;;;;22.47;60.59;97160.16;10235720;28;20038;-48
2023/06/12 07:41:27;;;;;;;8.60;6.25;;;;;;;22.76;59.75;97154.97;10243175;28;20129;-48
2023/06/12 07:46:26;;;;;;;9.18;5.95;;;;;;;23.06;57.53;97146.13;10246125;28;20133;-51
2023/06/12 07:51:25;;;;;;;11.25;6.35;;;;;;;23.33;57.39;97152.38;10244595;28;20138;-49
2023/06/12 07:56:24;;;;;;;7.68;6.07;;;;;;;23.39;57.73;97120.19;10247226;28;20129;-50
2023/06/12 08:01:23;;;;;;;9.00;6.07;;;;;;;23.68;55.33;97144.03;10245729;28;20169;-50
2023/06/12 08:06:24;;;;;;;9.95;6.72;;;;;;;23.39;55.78;97144.03;10245519;28;20038;-49
2023/06/12 08:11:23;;;;;;;8.02;6.15;;;;;;;23.53;55.53;97145.84;10249432;28;20498;-49
2023/06/12 08:16:23;;;;;;;8.15;6.07;;;;;;;23.78;54.75;97146.94;10246554;28;20470;-51
2023/06/12 08:21:24;;;;;;;7.05;5.53;;;;;;;24.01;55.23;97134.84;10243546;28;20533;-51
2023/06/12 08:26:24;;;;;;;10.18;6.28;;;;;;;24.55;55.22;97136.63;10248198;28;20146;-49
2023/06/12 08:31:23;;;;;;;9.43;5.53;;;;;;;24.76;53.49;97144.94;10248639;28;20127;-49
2023/06/12 08:36:22;;;;;;;8.93;5.88;;;;;;;24.42;52.16;97142.75;10247103;28;20066;-54
2023/06/12 08:41:25;;;;;;;7.93;5.88;;;;;;;24.33;53.09;97127.44;10247450;28;20037;-51
2023/06/12 08:46:28;;;;;;;9.07;5.45;;;;;;;24.46;51.03;97140.75;10246671;28;20474;-48
2023/06/12 08:51:29;;;;;;;7.00;5.22;;;;;;;24.39;51.13;97132.34;10246412;28;20092;-50
2023/06/12 08:56:28;;;;;;;7.65;5.30;;;;;;;24.31;52.28;97132.03;10246669;28;20061;-49
2023/06/12 09:01:29;;;;;;;8.80;5.13;;;;;;;24.74;49.44;97129.13;10246521;28;20486;-51
2023/06/12 09:06:32;;;;;;;8.52;5.72;;;;;;;24.90;48.48;97126.28;10245654;28;20153;-50
2023/06/12 09:11:35;;;;;;;8.88;5.13;;;;;;;25.48;47.91;97124.84;10244241;28;20478;-52
2023/06/12 09:16:34;;;;;;;6.30;5.38;;;;;;;25.55;48.90;97112.03;10241041;28;20139;-54
2023/06/12 09:21:33;;;;;;;8.70;5.30;;;;;;;25.83;48.26;97102.00;10244420;28;20042;-49
2023/06/12 09:26:32;;;;;;;8.07;5.13;;;;;;;25.88;49.52;97099.91;10246351;28;20050;-50
2023/06/12 09:31:33;;;;;;;9.48;6.03;;;;;;;25.93;48.54;97093.28;10243407;28;20168;-51
2023/06/12 09:36:32;;;;;;;6.60;4.70;;;;;;;25.78;48.81;97090.88;10247099;28;20125;-52
2023/06/12 09:41:33;;;;;;;7.70;5.45;;;;;;;25.23;51.67;97088.56;10246928;28;20128;-49
2023/06/12 09:46:32;;;;;;;7.53;5.20;;;;;;;25.36;51.97;97088.53;10240280;28;20129;-51
2023/06/12 09:51:32;;;;;;;7.15;5.55;;;;;;;25.62;51.22;97076.06;10234795;28;20049;-52
2023/06/12 09:56:33;;;;;;;8.32;5.60;;;;;;;25.58;50.77;97087.88;10240165;28;20082;-51
2023/06/12 10:01:39;;;;;;;6.72;5.85;;;;;;;25.40;50.81;97083.84;10244700;28;20153;-51
2023/06/12 10:06:39;;;;;;;6.30;5.05;;;;;;;25.50;51.77;97072.47;10243112;28;20626;-50
2023/06/12 10:11:39;;;;;;;8.43;5.07;;;;;;;25.81;49.64;97066.72;10244825;28;20057;-52
2023/06/12 10:16:41;;;;;;;6.55;5.05;;;;;;;25.40;48.55;97025.44;10243286;28;20058;-51
2023/06/12 10:21:41;;;;;;;7.75;5.07;;;;;;;26.17;48.33;97079.94;10249754;28;20477;-51
2023/06/12 10:26:41;;;;;;;5.65;4.65;;;;;;;26.08;47.44;97070.00;10252461;28;20070;-51
2023/06/12 10:31:40;;;;;;;7.80;5.53;;;;;;;26.02;49.71;97066.94;10250055;28;20503;-52
2023/06/12 10:36:47;;;;;;;7.68;5.50;;;;;;;26.05;49.44;97064.91;10249535;28;20418;-51
2023/06/12 10:41:52;;;;;;;7.25;5.30;;;;;;;25.27;52.42;97058.19;10249520;28;20125;-51
2023/06/12 10:46:51;;;;;;;8.32;5.53;;;;;;;24.79;54.44;97054.50;10250370;28;20153;-52
2023/06/12 10:51:50;;;;;;;8.63;5.55;;;;;;;25.15;53.61;97032.50;10251279;28;20026;-52
2023/06/12 10:56:58;;;;;;;12.45;6.75;;;;;;;25.36;53.28;97045.19;10250691;28;20494;-52
2023/06/12 11:01:57;;;;;;;6.83;5.13;;;;;;;25.19;51.90;97028.66;10248545;28;20129;-52
2023/06/12 11:06:57;;;;;;;8.30;5.57;;;;;;;25.26;51.56;97035.22;10250565;28;20038;-52
2023/06/12 11:12:00;;;;;;;8.68;5.80;;;;;;;24.95;53.46;97041.03;10251036;28;20118;-52
2023/06/12 11:16:59;;;;;;;10.85;6.55;;;;;;;24.46;54.25;97038.16;10247285;28;20122;-52
2023/06/12 11:21:58;;;;;;;9.80;5.82;;;;;;;23.66;57.10;97045.28;10250200;28;20061;-51
2023/06/12 11:27:00;;;;;;;11.07;5.95;;;;;;;23.31;58.03;97055.47;10251149;28;20041;-48
2023/06/12 11:32:01;;;;;;;8.35;6.20;;;;;;;23.20;59.02;97066.72;10249787;28;20073;-50
2023/06/12 11:37:17;;;;;;;21.00;8.07;;;;;;;22.80;64.26;97064.75;10246574;28;20142;-50
2023/06/12 11:42:16;;;;;;;15.52;9.30;;;;;;;22.03;69.92;97088.75;10248804;28;20129;-52
2023/06/12 11:47:15;;;;;;;14.20;8.50;;;;;;;21.55;74.15;97091.41;10247215;28;20078;-52
2023/06/12 11:52:14;;;;;;;11.63;5.05;;;;;;;20.54;65.39;97081.00;10247461;28;20022;-50
2023/06/12 11:57:16;;;;;;;13.30;4.53;;;;;;;20.39;66.40;97093.16;10246870;28;20104;-51
2023/06/12 12:02:16;;;;;;;13.50;4.60;;;;;;;19.97;74.29;97116.28;10250344;28;20074;-53
2023/06/12 12:07:17;;;;;;;17.10;6.95;;;;;;;19.02;81.76;97129.47;10249416;28;20065;-52
2023/06/12 12:12:16;;;;;;;18.80;11.75;;;;;;;17.67;94.64;97110.63;10247865;28;20129;-52
2023/06/12 12:17:16;;;;;;;23.10;16.73;;;;;;;17.34;100.00;97106.63;10248350;28;20112;-51
2023/06/12 12:22:16;;;;;;;27.77;19.23;;;;;;;17.21;100.00;97067.84;10248177;28;20117;-51
2023/06/12 12:27:15;;;;;;;26.10;22.35;;;;;;;17.45;100.00;97144.69;10229095;28;20145;-49
2023/06/12 12:32:14;;;;;;;28.98;20.38;;;;;;;17.63;100.00;97149.25;10241564;28;20029;-52
2023/06/12 12:37:13;;;;;;;16.92;13.45;;;;;;;17.73;100.00;97150.59;10246425;28;20090;-51
2023/06/12 12:42:12;;;;;;;23.33;14.70;;;;;;;17.79;100.00;97153.94;10247292;28;20041;-51
2023/06/12 12:47:11;;;;;;;19.92;14.07;;;;;;;17.54;100.00;97105.00;10260191;28;20390;-54
2023/06/12 12:52:10;;;;;;;18.60;15.10;;;;;;;17.83;100.00;97142.41;10245705;28;20062;-48
2023/06/12 12:57:09;;;;;;;17.63;13.85;;;;;;;17.69;100.00;97117.53;10244316;28;20034;-51
2023/06/12 13:02:08;;;;;;;17.75;13.95;;;;;;;17.74;100.00;97130.47;10244531;28;20133;-48
2023/06/12 13:07:08;;;;;;;18.23;14.15;;;;;;;17.10;100.00;97037.66;10249442;28;20129;-49
2023/06/12 13:12:09;;;;;;;17.90;13.77;;;;;;;17.72;100.00;97183.00;10246082;28;20505;-51
2023/06/12 13:17:08;;;;;;;20.80;16.58;;;;;;;17.46;100.00;97177.91;10245389;28;20062;-48
2023/06/12 13:22:07;;;;;;;16.25;13.50;;;;;;;17.15;100.00;97181.66;10245747;28;20486;-48
2023/06/12 13:27:07;;;;;;;12.05;9.85;;;;;;;16.84;100.00;97134.72;10243977;28;20150;-50
2023/06/12 13:32:06;;;;;;;15.60;10.93;;;;;;;17.11;100.00;97172.19;10246003;28;20054;-51
2023/06/12 13:37:08;;;;;;;11.93;8.88;;;;;;;17.04;100.00;97161.06;10243657;28;20069;-51
2023/06/12 13:42:07;;;;;;;10.82;9.45;;;;;;;17.25;100.00;97154.19;10243552;28;20066;-51
2023/06/12 13:47:07;;;;;;;14.65;12.10;;;;;;;17.43;100.00;97155.28;10245035;28;20120;-51
2023/06/12 13:52:12;;;;;;;19.33;13.98;;;;;;;17.57;100.00;97136.38;10245931;28;20065;-50
2023/06/12 13:57:12;;;;;;;6.70;6.03;;;;;;;17.60;100.00;97128.38;10258175;28;20229;-50
2023/06/12 14:02:11;;;;;;;12.40;9.25;;;;;;;17.38;100.00;97156.34;10259649;28;20080;-50
2023/06/12 14:07:10;;;;;;;14.95;11.30;;;;;;;17.07;100.00;97150.47;10258424;28;20038;-49
2023/06/12 14:12:09;;;;;;;15.38;10.73;;;;;;;16.69;100.00;97104.66;10258607;28;20136;-50
2023/06/12 14:17:10;;;;;;;12.50;10.20;;;;;;;17.05;100.00;97175.03;10255980;28;20070;-49
2023/06/12 14:22:09;;;;;;;12.07;9.40;;;;;;;17.11;100.00;97182.69;10258069;28;20077;-51
2023/06/12 14:27:08;;;;;;;14.18;10.55;;;;;;;17.27;100.00;97170.72;10257667;28;20066;-50
2023/06/12 14:32:08;;;;;;;12.60;10.00;;;;;;;17.53;100.00;97179.38;10253341;28;20030;-51
2023/06/12 14:37:07;;;;;;;15.07;10.48;;;;;;;17.76;100.00;97179.38;10252993;28;20081;-52
2023/06/12 14:42:06;;;;;;;14.65;9.68;;;;;;;18.00;100.00;97195.06;10256006;28;20034;-49
2023/06/12 14:47:07;;;;;;;17.52;8.70;;;;;;;17.95;100.00;97197.03;10251633;28;20153;-50
2023/06/12 14:52:06;;;;;;;13.40;7.70;;;;;;;17.50;100.00;97200.50;10249147;28;20120;-49
2023/06/12 14:57:06;;;;;;;14.75;7.40;;;;;;;17.36;100.00;97198.38;10251898;28;20466;-51
2023/06/12 15:02:05;;;;;;;10.32;7.18;;;;;;;17.25;100.00;97198.75;10252177;28;20125;-51
2023/06/12 15:07:04;;;;;;;11.55;7.95;;;;;;;17.19;100.00;97190.25;10246362;28;20050;-51
2023/06/12 15:12:04;;;;;;;11.75;7.63;;;;;;;17.26;100.00;97182.13;10248081;28;20081;-51
2023/06/12 15:17:03;;;;;;;11.32;8.95;;;;;;;17.48;100.00;97184.81;10248175;28;20145;-51
2023/06/12 15:22:03;;;;;;;13.70;9.02;;;;;;;17.69;100.00;97177.88;10247211;28;20137;-48
2023/06/12 15:27:02;;;;;;;10.57;7.85;;;;;;;18.00;100.00;97166.19;10247522;28;20532;-50
2023/06/12 15:32:04;;;;;;;10.75;7.68;;;;;;;18.05;100.00;97169.50;10247359;28;20062;-50
2023/06/12 15:37:03;;;;;;;13.75;9.25;;;;;;;18.06;100.00;97155.47;10245937;28;20077;-50
2023/06/12 15:42:02;;;;;;;12.48;8.50;;;;;;;18.37;100.00;97157.66;10248288;28;20126;-50
2023/06/12 15:47:01;;;;;;;11.13;8.70;;;;;;;18.61;100.00;97157.53;10243848;28;20125;-51
2023/06/12 15:52:00;;;;;;;12.57;9.23;;;;;;;18.95;100.00;97164.88;10241227;28;20121;-49
2023/06/12 15:56:59;;;;;;;10.45;7.40;;;;;;;19.08;100.00;97172.19;10243853;28;20041;-50
2023/06/12 16:01:58;;;;;;;11.43;8.00;;;;;;;19.03;100.00;97172.41;10246540;28;20134;-49
2023/06/12 16:06:57;;;;;;;11.98;8.55;;;;;;;19.12;100.00;97177.25;10244620;28;20033;-50
2023/06/12 16:11:56;;;;;;;11.27;7.85;;;;;;;19.08;100.00;97175.69;10244441;28;20033;-52
2023/06/12 16:16:55;;;;;;;11.07;9.05;;;;;;;19.00;100.00;97169.91;10245740;28;20104;-50
2023/06/12 16:21:54;;;;;;;12.00;9.30;;;;;;;18.97;100.00;97173.53;10245777;28;20141;-51
2023/06/12 16:26:53;;;;;;;12.35;8.85;;;;;;;18.86;100.00;97156.53;10242695;28;20125;-50
2023/06/12 16:31:52;;;;;;;11.50;9.23;;;;;;;18.67;100.00;97174.84;10244289;28;20029;-49
2023/06/12 16:36:51;;;;;;;13.00;10.20;;;;;;;18.54;100.00;97177.97;10243869;28;20038;-49
2023/06/12 16:41:50;;;;;;;15.27;11.75;;;;;;;18.42;100.00;97181.13;10243827;28;20482;-52
2023/06/12 16:46:49;;;;;;;13.80;11.73;;;;;;;18.37;100.00;97194.44;10244754;28;20405;-52
2023/06/12 16:51:48;;;;;;;15.02;11.60;;;;;;;18.35;100.00;97183.13;10246585;28;20031;-52
2023/06/12 16:56:47;;;;;;;12.82;10.38;;;;;;;18.33;100.00;97181.50;10247454;28;20070;-52
2023/06/12 17:01:46;;;;;;;15.68;10.18;;;;;;;18.43;100.00;97193.31;10248783;28;20054;-53
2023/06/12 17:06:45;;;;;;;14.27;10.10;;;;;;;18.37;100.00;97193.59;10244634;28;20121;-53
2023/06/12 17:11:44;;;;;;;16.20;10.52;;;;;;;18.37;100.00;97194.44;10247141;28;21345;-52
2023/06/12 17:16:43;;;;;;;14.32;11.60;;;;;;;18.30;100.00;97187.72;10244097;28;20036;-51
2023/06/12 17:21:44;;;;;;;14.98;11.43;;;;;;;18.19;100.00;97190.78;10246449;28;20562;-52
2023/06/12 17:26:43;;;;;;;14.75;11.43;;;;;;;18.17;100.00;97191.75;10254272;28;20066;-50
2023/06/12 17:31:43;;;;;;;15.65;10.40;;;;;;;18.12;100.00;97189.31;10245412;28;20061;-53
2023/06/12 17:36:42;;;;;;;13.52;11.60;;;;;;;18.09;100.00;97181.59;10246860;28;20058;-52
2023/06/12 17:41:41;;;;;;;17.00;12.75;;;;;;;18.06;100.00;97189.59;10245318;28;20046;-52
2023/06/12 17:46:40;;;;;;;17.45;12.60;;;;;;;18.03;100.00;97192.31;10241545;28;20070;-50
2023/06/12 17:51:39;;;;;;;19.00;13.27;;;;;;;18.01;100.00;97191.56;10240981;28;20053;-52
2023/06/12 17:56:38;;;;;;;17.10;13.30;;;;;;;17.97;100.00;97190.81;10242426;28;20125;-50
2023/06/12 18:01:37;;;;;;;18.00;12.88;;;;;;;17.64;100.00;97145.72;10242166;28;20125;-52
2023/06/12 18:06:37;;;;;;;19.02;13.98;;;;;;;17.92;100.00;97197.16;10240876;28;20046;-52
2023/06/12 18:11:36;;;;;;;25.10;16.65;;;;;;;17.89;100.00;97192.00;10242330;28;20077;-49
2023/06/12 18:16:34;;;;;;;21.42;15.05;;;;;;;17.65;100.00;97173.66;10242328;28;20030;-49
2023/06/12 18:21:33;;;;;;;21.80;15.70;;;;;;;17.83;100.00;97208.03;10242135;28;20038;-52
2023/06/12 18:26:32;;;;;;;23.30;16.08;;;;;;;17.82;100.00;97216.78;10241620;28;20515;-52
2023/06/12 18:31:31;;;;;;;22.88;15.90;;;;;;;17.77;100.00;97212.56;10240690;28;20545;-52
2023/06/12 18:36:30;;;;;;;22.40;12.75;;;;;;;17.72;100.00;97219.75;10241943;28;20042;-52
2023/06/12 18:41:30;;;;;;;19.40;14.45;;;;;;;17.67;100.00;97233.97;10243376;28;20038;-51
2023/06/12 18:46:29;;;;;;;21.98;14.98;;;;;;;17.53;100.00;97208.25;10246284;28;20074;-51
2023/06/12 18:51:28;;;;;;;27.25;17.77;;;;;;;17.69;100.00;97242.63;10250056;28;20050;-50
2023/06/12 18:56:31;;;;;;;26.20;17.65;;;;;;;17.70;100.00;97237.31;10248305;28;20046;-52
2023/06/12 19:01:30;;;;;;;27.17;17.50;;;;;;;17.74;100.00;97241.53;10247990;28;20133;-51
2023/06/12 19:06:29;;;;;;;22.65;15.98;;;;;;;17.74;100.00;97244.16;10248984;28;20050;-51
2023/06/12 19:11:27;;;;;;;22.60;15.45;;;;;;;17.66;100.00;97226.97;10247632;28;20034;-52
2023/06/12 19:16:27;;;;;;;22.08;15.93;;;;;;;17.73;100.00;97242.47;10245633;28;20110;-52
2023/06/12 19:21:27;;;;;;;20.00;15.30;;;;;;;17.66;100.00;97243.59;10245567;28;20080;-51
2023/06/12 19:26:26;;;;;;;21.25;15.20;;;;;;;17.71;100.00;97256.56;10247652;28;20097;-52
2023/06/12 19:31:25;;;;;;;19.50;14.07;;;;;;;17.69;100.00;97248.72;10247049;28;20081;-52
2023/06/12 19:36:24;;;;;;;18.67;13.32;;;;;;;17.67;100.00;97254.94;10246926;28;20043;-54
2023/06/12 19:41:23;;;;;;;21.17;13.77;;;;;;;17.69;100.00;97259.22;10246820;28;20441;-51
2023/06/12 19:46:22;;;;;;;17.73;13.68;;;;;;;17.68;100.00;97259.28;10247370;28;20501;-50
2023/06/12 19:51:21;;;;;;;20.15;13.63;;;;;;;17.68;100.00;97251.41;10244117;28;20550;-52
2023/06/12 19:56:21;;;;;;;19.48;14.85;;;;;;;17.64;100.00;97248.06;10244732;28;20046;-49
2023/06/12 20:01:21;;;;;;;23.70;17.42;;;;;;;17.64;100.00;97255.06;10245023;28;20045;-51
2023/06/12 20:06:19;;;;;;;25.08;18.35;;;;;;;17.66;100.00;97242.72;10246656;28;20113;-50
2023/06/12 20:11:20;;;;;;;29.00;20.05;;;;;;;17.57;100.00;97243.94;10245070;28;20101;-50
2023/06/12 20:16:19;;;;;;;28.80;19.13;;;;;;;17.51;100.00;97242.38;10245622;28;20113;-49
2023/06/12 20:21:19;;;;;;;20.90;14.85;;;;;;;17.50;100.00;97247.72;10246739;28;20065;-51
2023/06/12 20:26:18;;;;;;;18.60;14.27;;;;;;;17.47;100.00;97245.19;10243653;28;20076;-51
2023/06/12 20:31:17;;;;;;;17.48;13.25;;;;;;;17.40;100.00;97235.81;10244495;28;20125;-51
2023/06/12 20:36:16;;;;;;;22.15;13.00;;;;;;;17.32;100.00;97231.72;10244266;28;20048;-50
2023/06/12 20:41:17;;;;;;;16.55;12.52;;;;;;;17.30;100.00;97236.16;10244546;28;20042;-51
2023/06/12 20:46:16;;;;;;;17.58;13.82;;;;;;;17.29;100.00;97228.38;10242464;28;20121;-51
2023/06/12 20:51:15;;;;;;;24.20;15.00;;;;;;;17.26;100.00;97229.34;10244743;28;20053;-51
2023/06/12 20:56:14;;;;;;;19.50;14.77;;;;;;;17.24;100.00;97230.28;10244307;28;20453;-52
2023/06/12 21:01:13;;;;;;;21.48;15.70;;;;;;;17.20;100.00;97229.56;10242933;28;20501;-49
2023/06/12 21:06:13;;;;;;;18.23;15.55;;;;;;;17.16;100.00;97230.56;10242182;28;20405;-48
2023/06/12 21:11:35;;;;;;;21.58;16.20;;;;;;;17.13;100.00;97228.06;10243214;28;20105;-50
2023/06/12 21:16:35;;;;;;;20.23;15.73;;;;;;;17.16;100.00;97221.84;10243751;28;20133;-51
2023/06/12 21:21:35;;;;;;;21.08;15.63;;;;;;;17.18;100.00;97222.66;10240878;28;20133;-49
2023/06/12 21:26:35;;;;;;;21.27;15.85;;;;;;;17.16;100.00;97217.44;10243843;28;20077;-49
2023/06/12 21:31:34;;;;;;;21.17;16.15;;;;;;;17.12;100.00;97208.84;10243773;28;20449;-51
2023/06/12 21:36:33;;;;;;;21.45;15.93;;;;;;;17.22;100.00;97219.00;10242190;28;20396;-51
2023/06/12 21:41:32;;;;;;;25.95;15.30;;;;;;;17.22;100.00;97216.41;10240628;28;20076;-49
2023/06/12 21:46:31;;;;;;;25.98;17.42;;;;;;;17.20;100.00;97219.06;10244980;28;20121;-48
2023/06/12 21:51:30;;;;;;;19.92;14.70;;;;;;;17.06;100.00;97200.34;10247136;28;20049;-49
2023/06/12 21:56:29;;;;;;;19.85;14.15;;;;;;;17.22;100.00;97226.88;10243223;28;20034;-50
2023/06/12 22:01:28;;;;;;;17.92;14.23;;;;;;;17.23;100.00;97218.94;10245878;28;20545;-48
2023/06/12 22:06:27;;;;;;;18.48;13.23;;;;;;;17.21;100.00;97212.88;10245724;28;20034;-48
2023/06/12 22:11:26;;;;;;;18.65;14.25;;;;;;;17.25;100.00;97217.13;10245178;28;20030;-50
2023/06/12 22:16:25;;;;;;;19.08;14.60;;;;;;;17.27;100.00;97201.34;10245929;28;20133;-49
2023/06/12 22:21:24;;;;;;;22.90;15.02;;;;;;;17.26;100.00;97204.84;10247882;28;20034;-50
2023/06/12 22:26:22;;;;;;;21.40;14.15;;;;;;;17.22;100.00;97201.50;10248334;28;20124;-51
2023/06/12 22:31:21;;;;;;;20.15;14.40;;;;;;;17.09;100.00;97205.47;10250660;28;20038;-48
2023/06/12 22:36:20;;;;;;;21.30;15.10;;;;;;;17.05;100.00;97202.13;10252477;28;20041;-49
2023/06/12 22:41:19;;;;;;;28.00;15.80;;;;;;;17.04;100.00;97197.78;10253600;28;20045;-49
2023/06/12 22:46:18;;;;;;;27.13;16.90;;;;;;;16.86;100.00;97188.81;10270382;28;20130;-51